Time;durP1;ratioP1;P1;durP2;ratioP2;P2;SDS_P1;SDS_P2;PMS_P1;PMS_P2;Temp;Humidity;BMP_temperature;BMP_pressure;BME280_temperature;BME280_humidity;BME280_pressure;Samples;Min_cycle;Max_cycle;Signal;HPM_P1;HPM_P2
2023/07/29 00:00:45;;;;;;;;;;;;;;;22.88;100.00;99405.56;5031278;28;19921;-75
2023/07/29 00:03:10;;;;;;;;;;;;;;;22.86;100.00;99391.50;5028124;28;19921;-74
2023/07/29 00:05:39;;;;;;;;;;;;;;;22.81;100.00;99394.03;5031873;28;20012;-72
2023/07/29 00:08:04;;;;;;;;;;;;;;;22.79;100.00;99382.72;5029565;28;19929;-74
2023/07/29 00:10:35;;;;;;;;;;;;;;;22.78;100.00;99391.81;5030618;28;19921;-74
2023/07/29 00:13:01;;;;;;;;;;;;;;;22.77;100.00;99385.63;5032477;28;20417;-73
2023/07/29 00:15:26;;;;;;;;;;;;;;;22.62;100.00;99398.56;5028568;28;20038;-74
2023/07/29 00:17:51;;;;;;;;;;;;;;;22.57;100.00;99390.38;5029813;28;19925;-75
2023/07/29 00:20:17;;;;;;;;;;;;;;;22.55;100.00;99386.28;5031894;28;19983;-74
2023/07/29 00:22:43;;;;;;;;;;;;;;;22.57;100.00;99386.84;5027414;28;19975;-74
2023/07/29 00:25:08;;;;;;;;;;;;;;;22.62;100.00;99395.88;5030204;28;19932;-73
2023/07/29 00:27:34;;;;;;;;;;;;;;;22.60;100.00;99391.78;5011187;28;19917;-74
2023/07/29 00:29:59;;;;;;;;;;;;;;;22.65;100.00;99394.63;5028704;28;20008;-74
2023/07/29 00:32:26;;;;;;;;;;;;;;;22.66;100.00;99391.72;5026970;28;19956;-73
2023/07/29 00:34:53;;;;;;;;;;;;;;;22.66;100.00;99390.91;5026859;28;20377;-74
2023/07/29 00:37:18;;;;;;;;;;;;;;;22.70;100.00;99392.91;5028720;28;19964;-75
2023/07/29 00:39:45;;;;;;;;;;;;;;;22.68;100.00;99388.81;5028557;28;19921;-75
2023/07/29 00:42:10;;;;;;;;;;;;;;;22.47;100.00;99382.00;5011301;28;19921;-75
2023/07/29 00:44:36;;;;;;;;;;;;;;;22.48;100.00;99388.22;5011149;28;20397;-75
2023/07/29 00:47:02;;;;;;;;;;;;;;;22.54;100.00;99381.94;5014009;28;20373;-73
2023/07/29 00:49:28;;;;;;;;;;;;;;;22.52;100.00;99389.41;5026798;28;19932;-74
2023/07/29 00:51:53;;;;;;;;;;;;;;;22.46;100.00;99380.34;5029793;28;19921;-75
2023/07/29 00:54:19;;;;;;;;;;;;;;;22.28;100.00;99383.84;5028896;28;19967;-73
2023/07/29 00:56:44;;;;;;;;;;;;;;;22.22;100.00;99383.91;5026764;28;19928;-75
2023/07/29 00:59:11;;;;;;;;;;;;;;;22.19;100.00;99395.13;5026668;28;19925;-74
2023/07/29 01:01:37;;;;;;;;;;;;;;;22.09;100.00;99400.19;5026127;28;19925;-74
2023/07/29 01:04:02;;;;;;;;;;;;;;;21.94;100.00;99408.53;5026975;28;19932;-74
2023/07/29 01:06:44;;;;;;;;;;;;;;;21.88;100.00;99401.34;5014043;28;20011;-74
2023/07/29 01:09:13;;;;;;;;;;;;;;;21.88;100.00;99404.03;5020834;28;19970;-74
2023/07/29 01:11:39;;;;;;;;;;;;;;;21.80;100.00;99396.25;5030691;28;19921;-76
2023/07/29 01:14:15;;;;;;;;;;;;;;;21.82;100.00;99399.53;5010750;28;19928;-72
2023/07/29 01:16:46;;;;;;;;;;;;;;;21.73;100.00;99395.50;5029439;28;19968;-76
2023/07/29 01:19:38;;;;;;;;;;;;;;;21.67;100.00;99397.19;5011784;28;20266;-74
2023/07/29 01:22:04;;;;;;;;;;;;;;;21.62;100.00;99405.88;4994215;28;19933;-75
2023/07/29 01:24:29;;;;;;;;;;;;;;;21.67;100.00;99407.13;5014104;28;20403;-73
2023/07/29 01:26:55;;;;;;;;;;;;;;;21.76;100.00;99413.84;5027947;28;19918;-74
2023/07/29 01:29:20;;;;;;;;;;;;;;;21.58;100.00;99426.16;5027103;28;19928;-75
2023/07/29 01:31:49;;;;;;;;;;;;;;;21.39;100.00;99432.47;5023018;28;19924;-74
2023/07/29 01:34:26;;;;;;;;;;;;;;;21.20;100.00;99434.25;5031509;28;20325;-74
2023/07/29 01:36:54;;;;;;;;;;;;;;;21.07;100.00;99428.91;5007951;28;19975;-75
2023/07/29 01:39:22;;;;;;;;;;;;;;;20.88;100.00;99420.94;5030069;28;20269;-74
2023/07/29 01:41:48;;;;;;;;;;;;;;;20.96;100.00;99418.03;5027211;28;20390;-76
2023/07/29 01:44:14;;;;;;;;;;;;;;;21.01;100.00;99418.19;5011216;28;19925;-77
2023/07/29 01:46:40;;;;;;;;;;;;;;;21.07;100.00;99414.66;5029624;28;19921;-76
2023/07/29 01:49:06;;;;;;;;;;;;;;;21.17;100.00;99401.63;5027835;28;20337;-74
2023/07/29 01:51:31;;;;;;;;;;;;;;;21.24;100.00;99397.06;5027716;28;20027;-75
2023/07/29 01:53:58;;;;;;;;;;;;;;;21.27;100.00;99396.63;5013131;28;19929;-73
2023/07/29 01:56:24;;;;;;;;;;;;;;;21.32;100.00;99398.66;5007285;28;20269;-73
2023/07/29 01:58:53;;;;;;;;;;;;;;;21.38;100.00;99401.31;5029489;28;20289;-73
2023/07/29 02:01:18;;;;;;;;;;;;;;;21.38;100.00;99414.75;5025952;28;19933;-74
2023/07/29 02:03:44;;;;;;;;;;;;;;;21.40;100.00;99409.97;5028744;28;19921;-76
2023/07/29 02:06:09;;;;;;;;;;;;;;;21.32;100.00;99415.59;5011959;28;19925;-75
2023/07/29 02:08:35;;;;;;;;;;;;;;;21.37;100.00;99418.47;5027898;28;19922;-74
2023/07/29 02:11:01;;;;;;;;;;;;;;;21.41;100.00;99418.84;5027147;28;19921;-73
2023/07/29 02:13:26;;;;;;;;;;;;;;;21.40;100.00;99412.66;5030642;28;19921;-74
2023/07/29 02:15:51;;;;;;;;;;;;;;;21.44;100.00;99405.78;5023231;28;20398;-74
2023/07/29 02:18:17;;;;;;;;;;;;;;;21.46;100.00;99401.03;5029469;28;20393;-73
2023/07/29 02:20:48;;;;;;;;;;;;;;;21.42;100.00;99405.22;5024785;28;19921;-76
2023/07/29 02:23:14;;;;;;;;;;;;;;;21.17;100.00;99412.38;5028237;28;19921;-75
2023/07/29 02:25:40;;;;;;;;;;;;;;;21.10;100.00;99401.63;5028469;28;19921;-76
2023/07/29 02:28:05;;;;;;;;;;;;;;;21.16;100.00;99405.34;5009366;28;20016;-75
2023/07/29 02:30:31;;;;;;;;;;;;;;;21.22;100.00;99399.13;5026425;28;20408;-73
2023/07/29 02:32:57;;;;;;;;;;;;;;;21.29;100.00;99399.09;5008351;28;19929;-73
2023/07/29 02:35:22;;;;;;;;;;;;;;;21.38;100.00;99403.19;5023876;28;19917;-73
2023/07/29 02:37:48;;;;;;;;;;;;;;;21.38;100.00;99398.63;5028583;28;19925;-75
2023/07/29 02:40:13;;;;;;;;;;;;;;;21.30;100.00;99396.19;5029402;28;19921;-75
2023/07/29 02:42:39;;;;;;;;;;;;;;;21.29;100.00;99394.53;5025996;28;20400;-74
2023/07/29 02:45:05;;;;;;;;;;;;;;;21.32;100.00;99394.13;5009159;28;19975;-73
2023/07/29 02:47:30;;;;;;;;;;;;;;;21.34;100.00;99386.66;5030641;28;19949;-75
2023/07/29 02:49:55;;;;;;;;;;;;;;;21.40;100.00;99380.44;5007200;28;19933;-75
2023/07/29 02:52:21;;;;;;;;;;;;;;;21.46;100.00;99379.56;5029753;28;19985;-75
2023/07/29 02:54:46;;;;;;;;;;;;;;;21.42;100.00;99377.53;5026184;28;19917;-74
2023/07/29 02:57:13;;;;;;;;;;;;;;;21.46;100.00;99384.94;5028689;28;19924;-75
2023/07/29 02:59:39;;;;;;;;;;;;;;;21.49;100.00;99384.50;5028358;28;19943;-75
2023/07/29 03:02:04;;;;;;;;;;;;;;;21.52;100.00;99381.38;5008993;28;20385;-74
2023/07/29 03:04:30;;;;;;;;;;;;;;;21.55;100.00;99369.41;5008941;28;19922;-75
2023/07/29 03:06:55;;;;;;;;;;;;;;;21.53;100.00;99374.97;5030077;28;19917;-76
2023/07/29 03:09:21;;;;;;;;;;;;;;;21.41;100.00;99387.44;5024393;28;20408;-75
2023/07/29 03:11:46;;;;;;;;;;;;;;;21.22;100.00;99391.91;5012977;28;19921;-75
2023/07/29 03:14:12;;;;;;;;;;;;;;;21.25;100.00;99398.72;5030195;28;20386;-73
2023/07/29 03:16:37;;;;;;;;;;;;;;;21.27;100.00;99404.66;5031734;28;19964;-73
2023/07/29 03:19:03;;;;;;;;;;;;;;;21.24;100.00;99402.44;5031858;28;19947;-74
2023/07/29 03:21:28;;;;;;;;;;;;;;;21.24;100.00;99397.06;5029411;28;19932;-73
2023/07/29 03:23:54;;;;;;;;;;;;;;;21.30;100.00;99396.19;5011903;28;19922;-73
2023/07/29 03:26:19;;;;;;;;;;;;;;;21.30;100.00;99400.75;5034265;28;20361;-74
2023/07/29 03:28:45;;;;;;;;;;;;;;;21.28;100.00;99406.31;5009874;28;20002;-73
2023/07/29 03:31:10;;;;;;;;;;;;;;;21.31;100.00;99402.38;5028403;28;19921;-75
2023/07/29 03:33:36;;;;;;;;;;;;;;;21.09;100.00;99404.53;5011183;28;19922;-76
2023/07/29 03:36:02;;;;;;;;;;;;;;;21.05;100.00;99408.69;5016268;28;20020;-75
2023/07/29 03:38:27;;;;;;;;;;;;;;;21.07;100.00;99407.44;5013360;28;19952;-75
2023/07/29 03:40:53;;;;;;;;;;;;;;;21.07;100.00;99418.16;5030126;28;20408;-76
2023/07/29 03:43:19;;;;;;;;;;;;;;;20.81;100.00;99413.72;5011898;28;19925;-73
2023/07/29 03:45:44;;;;;;;;;;;;;;;20.84;100.00;99418.69;5015274;28;19921;-73
2023/07/29 03:48:10;;;;;;;;;;;;;;;20.82;100.00;99426.09;5010063;28;19925;-75
2023/07/29 03:50:36;;;;;;;;;;;;;;;20.64;100.00;99434.00;5032027;28;19929;-74
2023/07/29 03:53:01;;;;;;;;;;;;;;;20.46;100.00;99431.16;5012065;28;20730;-74
2023/07/29 03:55:29;;;;;;;;;;;;;;;20.36;100.00;99436.13;5030584;28;19929;-77
2023/07/29 03:57:55;;;;;;;;;;;;;;;20.48;100.00;99417.56;5013737;28;20042;-74
2023/07/29 04:00:20;;;;;;;;;;;;;;;20.53;100.00;99421.25;5012731;28;19927;-74
2023/07/29 04:02:47;;;;;;;;;;;;;;;20.47;100.00;99435.50;5009245;28;20388;-75
2023/07/29 04:05:13;;;;;;;;;;;;;;;20.40;100.00;99419.41;5031910;28;19956;-75
2023/07/29 04:07:39;;;;;;;;;;;;;;;20.41;100.00;99420.25;5011517;28;19932;-75
2023/07/29 04:10:05;;;;;;;;;;;;;;;20.24;100.00;99435.06;5013265;28;19921;-74
2023/07/29 04:12:30;;;;;;;;;;;;;;;20.16;100.00;99436.09;5030723;28;19921;-74
2023/07/29 04:14:56;;;;;;;;;;;;;;;20.29;100.00;99443.31;5029675;28;19921;-74
2023/07/29 04:17:21;;;;;;;;;;;;;;;20.41;100.00;99449.72;5011009;28;19976;-75
2023/07/29 04:19:47;;;;;;;;;;;;;;;20.44;100.00;99451.97;5014035;28;19932;-75
2023/07/29 04:22:12;;;;;;;;;;;;;;;20.46;100.00;99449.91;5026272;28;20016;-75
2023/07/29 04:24:38;;;;;;;;;;;;;;;20.40;100.00;99448.06;5031270;28;19925;-75
2023/07/29 04:27:04;;;;;;;;;;;;;;;20.43;100.00;99443.13;5012069;28;19926;-75
2023/07/29 04:29:29;;;;;;;;;;;;;;;20.52;100.00;99441.03;5030623;28;20020;-75
2023/07/29 04:31:55;;;;;;;;;;;;;;;20.55;100.00;99440.63;5026497;28;19922;-75
2023/07/29 04:34:20;;;;;;;;;;;;;;;20.61;100.00;99445.16;5029208;28;19921;-73
2023/07/29 04:36:46;;;;;;;;;;;;;;;20.63;100.00;99455.66;5028164;28;19976;-73
2023/07/29 04:39:12;;;;;;;;;;;;;;;20.74;100.00;99461.19;5031029;28;19921;-73
2023/07/29 04:41:37;;;;;;;;;;;;;;;20.81;100.00;99456.63;5026724;28;19929;-74
2023/07/29 04:44:03;;;;;;;;;;;;;;;20.86;100.00;99453.31;5031178;28;20381;-76
2023/07/29 04:46:28;;;;;;;;;;;;;;;20.82;100.00;99455.59;5032218;28;19932;-75
2023/07/29 04:48:54;;;;;;;;;;;;;;;20.75;100.00;99453.97;5029632;28;19921;-74
2023/07/29 04:51:19;;;;;;;;;;;;;;;20.80;100.00;99460.34;5011708;28;19921;-75
2023/07/29 04:53:45;;;;;;;;;;;;;;;20.87;100.00;99451.47;5028557;28;19928;-75
2023/07/29 04:56:11;;;;;;;;;;;;;;;20.92;100.00;99447.09;5027787;28;19921;-75
2023/07/29 04:58:36;;;;;;;;;;;;;;;21.01;100.00;99455.75;5030979;28;19928;-73
2023/07/29 05:01:03;;;;;;;;;;;;;;;21.09;100.00;99444.75;5029846;28;19921;-73
2023/07/29 05:03:28;;;;;;;;;;;;;;;21.11;100.00;99453.44;5030053;28;19929;-74
2023/07/29 05:05:55;;;;;;;;;;;;;;;21.17;100.00;99455.31;5030336;28;20061;-75
2023/07/29 05:08:21;;;;;;;;;;;;;;;21.22;100.00;99458.97;5029350;28;20000;-74
2023/07/29 05:10:50;;;;;;;;;;;;;;;21.23;100.00;99460.63;5010267;28;20064;-74
2023/07/29 05:13:16;;;;;;;;;;;;;;;21.28;100.00;99461.84;5030803;28;19965;-75
2023/07/29 05:15:41;;;;;;;;;;;;;;;21.31;100.00;99462.25;5025854;28;19975;-75
2023/07/29 05:18:07;;;;;;;;;;;;;;;21.32;100.00;99460.41;5031109;28;19921;-75
2023/07/29 05:20:32;;;;;;;;;;;;;;;21.37;100.00;99458.72;5028418;28;19987;-74
2023/07/29 05:22:57;;;;;;;;;;;;;;;21.42;100.00;99453.53;5028860;28;19929;-75
2023/07/29 05:25:23;;;;;;;;;;;;;;;21.49;100.00;99465.06;5012675;28;19921;-75
2023/07/29 05:27:49;;;;;;;;;;;;;;;21.52;100.00;99475.34;5028501;28;19968;-75
2023/07/29 05:30:14;;;;;;;;;;;;;;;21.43;100.00;99471.28;5027716;28;20309;-75
2023/07/29 05:32:39;;;;;;;;;;;;;;;21.44;100.00;99475.59;5026076;28;19923;-75
2023/07/29 05:35:05;;;;;;;;;;;;;;;21.54;100.00;99475.97;5024423;28;19984;-74
2023/07/29 05:37:31;;;;;;;;;;;;;;;21.51;100.00;99478.25;5014191;28;20392;-73
2023/07/29 05:39:56;;;;;;;;;;;;;;;21.60;100.00;99476.97;5010338;28;20400;-74
2023/07/29 05:42:21;;;;;;;;;;;;;;;21.62;100.00;99475.69;5027653;28;19928;-73
2023/07/29 05:44:47;;;;;;;;;;;;;;;21.67;100.00;99474.25;5028726;28;19928;-75
2023/07/29 05:47:12;;;;;;;;;;;;;;;21.60;100.00;99476.97;5032088;28;19979;-75
2023/07/29 05:49:40;;;;;;;;;;;;;;;21.70;100.00;99473.81;5024840;28;19948;-73
2023/07/29 05:52:07;;;;;;;;;;;;;;;21.71;100.00;99478.13;5012806;28;19918;-75
2023/07/29 05:54:32;;;;;;;;;;;;;;;21.71;100.00;99478.13;5028210;28;19921;-74
2023/07/29 05:56:58;;;;;;;;;;;;;;;21.82;100.00;99480.13;5027979;28;19936;-75
2023/07/29 05:59:23;;;;;;;;;;;;;;;21.88;100.00;99473.88;5029101;28;19941;-75
2023/07/29 06:01:49;;;;;;;;;;;;;;;21.94;100.00;99467.66;4992845;28;19925;-74
2023/07/29 06:04:15;;;;;;;;;;;;;;;22.03;100.00;99471.75;5027255;28;19928;-74
2023/07/29 06:06:40;;;;;;;;;;;;;;;22.15;100.00;99464.59;5030707;28;19917;-74
2023/07/29 06:09:06;;;;;;;;;;;;;;;22.21;100.00;99469.09;5025011;28;19995;-74
2023/07/29 06:11:32;;;;;;;;;;;;;;;22.31;100.00;99469.44;5029300;28;19940;-74
2023/07/29 06:13:57;;;;;;;;;;;;;;;22.42;100.00;99471.41;5028381;28;19928;-73
2023/07/29 06:16:23;;;;;;;;;;;;;;;22.55;100.00;99480.41;5027473;28;19928;-74
2023/07/29 06:18:49;;;;;;;;;;;;;;;22.65;100.00;99478.84;5029097;28;19940;-73
2023/07/29 06:21:17;;;;;;;;;;;;;;;22.79;100.00;99479.56;5009784;28;19975;-73
2023/07/29 06:23:45;;;;;;;;;;;;;;;22.89;100.00;99476.34;5008787;28;19921;-74
2023/07/29 06:26:11;;;;;;;;;;;;;;;22.96;100.00;99464.47;5030237;28;19925;-73
2023/07/29 06:28:36;;;;;;;;;;;;;;;23.02;100.00;99471.63;5024506;28;19921;-74
2023/07/29 06:31:02;;;;;;;;;;;;;;;23.06;100.00;99478.19;5021548;28;19944;-74
2023/07/29 06:33:27;;;;;;;;;;;;;;;23.10;100.00;99484.78;5026465;28;19936;-74
2023/07/29 06:35:52;;;;;;;;;;;;;;;23.09;100.00;99493.88;5027520;28;19921;-74
2023/07/29 06:38:21;;;;;;;;;;;;;;;23.17;100.00;99490.06;5028813;28;19951;-73
2023/07/29 06:40:49;;;;;;;;;;;;;;;23.22;100.00;99487.53;5041701;22;20013;-75
2023/07/29 06:43:14;;;;;;;;;;;;;;;23.23;100.00;99483.78;5023185;28;19956;-74
2023/07/29 06:45:39;;;;;;;;;;;;;;;23.21;100.00;99485.88;5030185;28;19999;-75
2023/07/29 06:48:05;;;;;;;;;;;;;;;23.28;100.00;99495.53;5024296;28;19928;-74
2023/07/29 06:50:30;;;;;;;;;;;;;;;23.36;100.00;99488.19;5032269;28;20437;-75
2023/07/29 06:52:56;;;;;;;;;;;;;;;23.41;100.00;99491.03;5030418;28;19997;-75
2023/07/29 06:55:21;;;;;;;;;;;;;;;23.44;100.00;99494.09;5032679;28;19975;-75
2023/07/29 06:57:46;;;;;;;;;;;;;;;23.52;100.00;99492.97;5025976;28;19929;-75
2023/07/29 07:00:12;;;;;;;;;;;;;;;23.60;100.00;99501.56;5026782;28;20393;-75
2023/07/29 07:02:37;;;;;;;;;;;;;;;23.67;100.00;99501.47;5030974;28;19932;-73
2023/07/29 07:05:03;;;;;;;;;;;;;;;23.71;100.00;99491.88;5023662;28;19929;-75
2023/07/29 07:07:28;;;;;;;;;;;;;;;23.76;100.00;99493.88;5028308;28;20007;-76
2023/07/29 07:09:53;;;;;;;;;;;;;;;23.76;100.00;99494.69;5033998;28;19925;-73
2023/07/29 07:12:19;;;;;;;;;;;;;;;23.75;100.00;99503.00;5031449;28;19928;-73
2023/07/29 07:14:44;;;;;;;;;;;;;;;23.78;100.00;99492.63;5033928;28;19921;-72
2023/07/29 07:17:10;;;;;;;;;;;;;;;23.89;100.00;99497.22;5025347;28;19921;-74
2023/07/29 07:19:35;;;;;;;;;;;;;;;23.94;100.00;99486.56;5034420;28;19921;-73
2023/07/29 07:22:01;;;;;;;;;;;;;;;24.02;100.00;99490.81;5033720;28;19929;-74
2023/07/29 07:24:26;;;;;;;;;;;;;;;24.08;100.00;99488.00;5027122;28;19921;-72
2023/07/29 07:26:51;;;;;;;;;;;;;;;24.16;100.00;99494.09;5028115;28;19925;-71
2023/07/29 07:29:17;;;;;;;;;;;;;;;24.19;100.00;99494.50;5030631;28;19921;-74
2023/07/29 07:31:49;;;;;;;;;;;;;;;24.26;100.00;99495.22;5030965;28;19921;-72
2023/07/29 07:34:14;;;;;;;;;;;;;;;24.37;100.00;99493.56;5034702;28;20023;-72
2023/07/29 07:36:39;;;;;;;;;;;;;;;24.46;100.00;99489.47;5029948;28;20013;-74
2023/07/29 07:39:05;;;;;;;;;;;;;;;24.58;100.00;99482.19;5032448;28;19936;-74
2023/07/29 07:41:30;;;;;;;;;;;;;;;24.67;100.00;99479.97;5021217;28;19921;-74
2023/07/29 07:43:55;;;;;;;;;;;;;;;24.75;100.00;99488.50;5032496;28;19921;-74
2023/07/29 07:46:21;;;;;;;;;;;;;;;24.84;100.00;99487.13;5032921;28;20004;-74
2023/07/29 07:48:46;;;;;;;;;;;;;;;24.90;100.00;99488.06;5023274;28;20294;-73
2023/07/29 07:51:12;;;;;;;;;;;;;;;24.95;100.00;99485.47;5027513;28;19968;-74
2023/07/29 07:53:38;;;;;;;;;;;;;;;24.98;100.00;99481.47;5032164;28;20293;-74
2023/07/29 07:56:03;;;;;;;;;;;;;;;24.99;100.00;99483.13;5024071;28;19922;-74
2023/07/29 07:58:28;;;;;;;;;;;;;;;24.94;100.00;99483.00;5028412;28;20333;-73
2023/07/29 08:01:00;;;;;;;;;;;;;;;24.98;100.00;99492.25;5025838;28;20429;-74
2023/07/29 08:03:25;;;;;;;;;;;;;;;24.99;100.00;99485.81;5029065;28;20012;-75
2023/07/29 08:05:51;;;;;;;;;;;;;;;24.94;100.00;99481.13;5005190;28;20016;-76
2023/07/29 08:08:16;;;;;;;;;;;;;;;24.94;100.00;99480.31;5022176;28;20321;-74
2023/07/29 08:10:42;;;;;;;;;;;;;;;24.98;100.00;99474.19;5032681;28;20336;-73
2023/07/29 08:13:08;;;;;;;;;;;;;;;25.06;100.00;99473.00;5026393;28;19921;-74
2023/07/29 08:15:33;;;;;;;;;;;;;;;25.13;100.00;99468.31;5016090;28;19978;-75
2023/07/29 08:17:58;;;;;;;;;;;;;;;25.22;100.00;99477.66;5026940;28;19925;-77
2023/07/29 08:20:24;;;;;;;;;;;;;;;25.24;100.00;99480.94;5007851;28;19921;-84
2023/07/29 08:22:49;;;;;;;;;;;;;;;25.24;100.00;99481.75;5026829;28;19921;-88
2023/07/29 08:25:14;;;;;;;;;;;;;;;25.29;100.00;99483.75;5028538;28;19929;-87
2023/07/29 08:27:40;;;;;;;;;;;;;;;25.32;100.00;99475.19;5030711;28;19921;-87
2023/07/29 08:30:05;;;;;;;;;;;;;;;25.40;100.00;99474.78;5025969;28;19929;-86
2023/07/29 08:32:31;;;;;;;;;;;;;;;25.48;100.00;99474.41;5030169;28;19979;-89
2023/07/29 08:34:56;;;;;;;;;;;;;;;25.58;100.00;99479.19;5031650;28;19927;-87
2023/07/29 08:37:21;;;;;;;;;;;;;;;25.62;100.00;99478.47;5027890;28;19921;-81
2023/07/29 08:39:47;;;;;;;;;;;;;;;25.66;100.00;99474.22;5028593;28;19921;-80
2023/07/29 08:42:12;;;;;;;;;;;;;;;25.68;100.00;99472.09;5030979;28;19928;-80
2023/07/29 08:44:42;;;;;;;;;;;;;;;25.76;100.00;99467.34;5026038;28;19929;-82
2023/07/29 08:47:08;;;;;;;;;;;;;;;25.79;100.00;99466.88;5027418;28;19921;-82
2023/07/29 08:49:33;;;;;;;;;;;;;;;25.84;100.00;99464.28;5021908;28;19933;-83
2023/07/29 08:51:59;;;;;;;;;;;;;;;25.88;100.00;99466.22;5028454;28;19921;-82
2023/07/29 08:54:25;;;;;;;;;;;;;;;25.95;100.00;99468.78;5029490;28;19987;-82
2023/07/29 08:56:50;;;;;;;;;;;;;;;26.00;100.00;99468.88;5031820;28;19943;-83
2023/07/29 08:59:17;;;;;;;;;;;;;;;26.05;100.00;99460.84;5026418;28;19928;-83
2023/07/29 09:01:42;;;;;;;;;;;;;;;26.11;100.00;99457.16;5026420;28;20370;-83
2023/07/29 09:04:08;;;;;;;;;;;;;;;26.15;100.00;99461.03;5027843;28;19936;-83
2023/07/29 09:06:34;;;;;;;;;;;;;;;26.18;100.00;99447.00;5030967;28;20377;-83
2023/07/29 09:09:00;;;;;;;;;;;;;;;26.21;100.00;99446.50;5028429;28;19971;-83
2023/07/29 09:11:26;;;;;;;;;;;;;;;26.24;100.00;99446.03;5029686;28;19921;-82
2023/07/29 09:13:52;;;;;;;;;;;;;;;26.28;100.00;99439.06;5030034;28;20308;-82
2023/07/29 09:16:18;;;;;;;;;;;;;;;26.33;100.00;99431.00;5027005;28;19928;-82
2023/07/29 09:18:43;;;;;;;;;;;;;;;26.38;100.00;99433.81;5029334;28;20308;-83
2023/07/29 09:21:09;;;;;;;;;;;;;;;26.38;100.00;99433.00;5028064;28;19968;-81
2023/07/29 09:23:41;;;;;;;;;;;;;;;26.37;100.00;99432.19;5027357;28;20027;-81
2023/07/29 09:26:06;;;;;;;;;;;;;;;26.39;100.00;99426.53;5023740;28;19921;-82
2023/07/29 09:28:33;;;;;;;;;;;;;;;26.42;100.00;99429.53;5026115;28;19921;-83
2023/07/29 09:30:59;;;;;;;;;;;;;;;26.49;100.00;99430.19;5029489;28;20332;-83
2023/07/29 09:33:25;;;;;;;;;;;;;;;26.57;100.00;99426.22;5028934;28;20011;-83
2023/07/29 09:35:50;;;;;;;;;;;;;;;26.66;100.00;99434.75;5026737;28;19944;-83
2023/07/29 09:38:16;;;;;;;;;;;;;;;26.71;100.00;99432.91;5029730;28;20362;-85
2023/07/29 09:40:41;;;;;;;;;;;;;;;26.75;100.00;99422.41;5029819;28;19928;-84
2023/07/29 09:43:08;;;;;;;;;;;;;;;26.87;100.00;99425.81;5027540;28;19925;-84
2023/07/29 09:45:34;;;;;;;;;;;;;;;26.95;100.00;99422.69;5030674;28;20019;-84
2023/07/29 09:48:00;;;;;;;;;;;;;;;27.05;100.00;99422.81;5024473;28;19925;-83
2023/07/29 09:50:25;;;;;;;;;;;;;;;27.12;100.00;99426.16;5027629;28;19929;-84
2023/07/29 09:52:52;;;;;;;;;;;;;;;27.19;100.00;99423.25;5028892;28;19921;-84
2023/07/29 09:55:18;;;;;;;;;;;;;;;27.18;100.00;99427.03;5027890;28;20349;-84
2023/07/29 09:57:44;;;;;;;;;;;;;;;27.18;100.00;99422.44;5026989;28;20416;-85
2023/07/29 10:00:11;;;;;;;;;;;;;;;27.19;100.00;99418.66;5021703;28;19925;-86
2023/07/29 10:02:37;;;;;;;;;;;;;;;27.21;100.00;99416.50;5018584;28;19921;-85
2023/07/29 10:05:03;;;;;;;;;;;;;;;27.24;100.00;99410.56;5027367;28;19964;-85
2023/07/29 10:07:29;;;;;;;;;;;;;;;27.25;100.00;99414.91;5025977;28;19936;-84
2023/07/29 10:09:55;;;;;;;;;;;;;;;27.26;100.00;99408.44;5019621;28;19921;-86
2023/07/29 10:12:21;;;;;;;;;;;;;;;27.30;100.00;99409.56;5028370;28;20385;-85
2023/07/29 10:14:47;;;;;;;;;;;;;;;27.38;100.00;99404.75;5026830;28;19928;-85
2023/07/29 10:17:15;;;;;;;;;;;;;;;27.41;100.00;99409.66;5029485;28;20009;-85
2023/07/29 10:19:42;;;;;;;;;;;;;;;27.45;100.00;99413.50;5027476;28;19921;-85
2023/07/29 10:22:08;;;;;;;;;;;;;;;27.49;100.00;99411.91;5026104;28;19961;-85
2023/07/29 10:24:33;;;;;;;;;;;;;;;27.51;100.00;99409.81;5030536;28;19974;-85
2023/07/29 10:27:00;;;;;;;;;;;;;;;27.55;100.00;99416.34;5025262;28;19944;-85
2023/07/29 10:29:36;;;;;;;;;;;;;;;27.58;100.00;99416.63;5028222;28;19928;-85
2023/07/29 10:32:03;;;;;;;;;;;;;;;27.61;100.00;99410.72;5026421;28;19925;-85
2023/07/29 10:34:29;;;;;;;;;;;;;;;27.61;100.00;99410.72;5026793;28;19955;-85
2023/07/29 10:36:55;;;;;;;;;;;;;;;27.61;100.00;99410.72;5026081;28;20593;-85
2023/07/29 10:39:20;;;;;;;;;;;;;;;27.61;100.00;99402.59;5030509;28;19928;-86
2023/07/29 10:41:55;;;;;;;;;;;;;;;27.61;100.00;99404.47;5026484;28;20389;-85
2023/07/29 10:44:39;;;;;;;;;;;;;;;27.61;100.00;99399.06;5029811;28;19925;-86
2023/07/29 10:47:19;;;;;;;;;;;;;;;27.66;100.00;99386.34;5023259;28;20024;-86
2023/07/29 10:49:46;;;;;;;;;;;;;;;27.73;100.00;99386.16;5021291;28;19955;-86
2023/07/29 10:52:15;;;;;;;;;;;;;;;27.78;100.00;99394.31;5029800;28;19921;-84
2023/07/29 10:54:45;;;;;;;;;;;;;;;27.80;100.00;99389.47;5024273;28;20024;-86
2023/07/29 10:57:15;;;;;;;;;;;;;;;27.84;100.00;99387.03;5028923;28;20396;-85
2023/07/29 10:59:41;;;;;;;;;;;;;;;27.86;99.18;99380.28;5026171;28;20283;-85
2023/07/29 11:02:17;;;;;;;;;;;;;;;27.88;99.61;99388.97;5027228;28;20001;-84
2023/07/29 11:04:50;;;;;;;;;;;;;;;27.90;99.79;99384.13;5025439;28;20435;-85
2023/07/29 11:07:15;;;;;;;;;;;;;;;27.91;100.00;99379.50;4993870;28;19953;-85
2023/07/29 11:10:00;;;;;;;;;;;;;;;27.95;99.57;99384.16;5024185;28;19994;-85
2023/07/29 11:12:34;;;;;;;;;;;;;;;28.01;99.67;99385.81;5025822;28;19926;-86
2023/07/29 11:15:09;;;;;;;;;;;;;;;28.09;98.62;99379.94;5027492;28;19921;-85
2023/07/29 11:17:34;;;;;;;;;;;;;;;28.19;98.91;99378.38;5024012;28;19927;-85
2023/07/29 11:20:03;;;;;;;;;;;;;;;28.29;98.35;99373.81;5029200;28;20016;-85
2023/07/29 11:22:29;;;;;;;;;;;;;;;28.34;97.64;99371.13;5023168;28;19932;-85
2023/07/29 11:24:54;;;;;;;;;;;;;;;28.36;95.96;99368.16;5027905;28;19921;-85
2023/07/29 11:27:20;;;;;;;;;;;;;;;28.35;96.55;99363.81;5025443;28;19947;-85
2023/07/29 11:29:46;;;;;;;;;;;;;;;28.31;96.21;99360.81;5026864;28;19921;-83
2023/07/29 11:32:11;;;;;;;;;;;;;;;28.32;96.00;99356.22;5027160;28;19921;-85
2023/07/29 11:34:37;;;;;;;;;;;;;;;28.35;95.39;99352.97;5033222;28;20064;-85
2023/07/29 11:37:02;;;;;;;;;;;;;;;28.42;95.05;99351.66;5025471;28;19929;-83
2023/07/29 11:39:27;;;;;;;;;;;;;;;28.53;92.77;99341.66;5032147;28;19921;-81
2023/07/29 11:41:52;;;;;;;;;;;;;;;28.62;92.08;99345.50;5032596;28;19921;-84
2023/07/29 11:44:18;;;;;;;;;;;;;;;28.70;92.03;99341.44;5033606;28;19921;-85
2023/07/29 11:46:43;;;;;;;;;;;;;;;28.77;88.25;99348.28;5033616;28;20404;-84
2023/07/29 11:49:09;;;;;;;;;;;;;;;28.85;89.43;99338.81;5033658;28;19922;-83
2023/07/29 11:51:34;;;;;;;;;;;;;;;28.91;89.96;99337.75;5025614;28;19921;-85
2023/07/29 11:54:00;;;;;;;;;;;;;;;29.00;89.04;99335.31;5032548;28;19932;-85
2023/07/29 11:56:25;;;;;;;;;;;;;;;29.11;88.87;99326.09;5033504;28;19922;-85
2023/07/29 11:58:50;;;;;;;;;;;;;;;29.24;88.80;99326.41;5033494;28;19921;-85
2023/07/29 12:01:16;;;;;;;;;;;;;;;29.38;87.62;99332.16;5033956;28;19921;-86
2023/07/29 12:03:42;;;;;;;;;;;;;;;29.52;86.51;99319.66;5033823;28;19921;-85
2023/07/29 12:06:07;;;;;;;;;;;;;;;29.65;85.52;99321.84;5034608;28;19928;-85
2023/07/29 12:08:33;;;;;;;;;;;;;;;29.64;85.51;99320.19;5030209;28;20292;-81
2023/07/29 12:10:58;;;;;;;;;;;;;;;29.56;85.24;99319.94;5021369;28;19929;-86
2023/07/29 12:13:24;;;;;;;;;;;;;;;29.48;86.10;99313.13;5023939;28;19957;-83
2023/07/29 12:15:50;;;;;;;;;;;;;;;29.43;86.94;99313.13;5016133;28;19925;-81
2023/07/29 12:18:15;;;;;;;;;;;;;;;29.38;86.62;99315.88;5013750;28;19921;-83
2023/07/29 12:20:41;;;;;;;;;;;;;;;29.37;87.45;99314.22;5023925;28;19928;-82
2023/07/29 12:23:07;;;;;;;;;;;;;;;29.38;87.07;99315.03;5020309;28;19921;-83
2023/07/29 12:25:33;;;;;;;;;;;;;;;29.66;86.34;99318.03;5029189;28;19975;-82
2023/07/29 12:28:05;;;;;;;;;;;;;;;29.75;85.90;99304.69;5032054;28;20008;-82
2023/07/29 12:30:30;;;;;;;;;;;;;;;29.71;86.02;99304.44;5033425;28;19921;-80
2023/07/29 12:32:57;;;;;;;;;;;;;;;29.67;85.52;99303.34;5032466;28;20291;-81